Time;durP1;ratioP1;P1;durP2;ratioP2;P2;SDS_P1;SDS_P2;PMS_P1;PMS_P2;Temp;Humidity;BMP_temperature;BMP_pressure;BME280_temperature;BME280_humidity;BME280_pressure;Samples;Min_cycle;Max_cycle;Signal;HPM_P1;HPM_P2
2023/09/15 00:01:27;;;;;;;6.85;2.08;;;;;;;;;;4944652;28;20039;-69
2023/09/15 00:03:53;;;;;;;7.78;2.40;;;;;;;;;;4945143;28;20038;-70
2023/09/15 00:06:19;;;;;;;7.15;1.98;;;;;;;;;;4946247;28;20417;-69
2023/09/15 00:08:45;;;;;;;5.72;2.15;;;;;;;;;;4942608;28;20481;-70
2023/09/15 00:11:15;;;;;;;5.50;1.92;;;;;;;;;;4944716;28;20251;-69
2023/09/15 00:13:41;;;;;;;7.47;2.30;;;;;;;;;;4939175;28;20022;-70
2023/09/15 00:16:08;;;;;;;6.82;2.20;;;;;;;;;;4942677;28;20027;-70
2023/09/15 00:18:35;;;;;;;7.25;2.30;;;;;;;;;;4946041;28;20118;-70
2023/09/15 00:21:01;;;;;;;7.40;2.47;;;;;;;;;;4941563;28;20023;-70
2023/09/15 00:23:28;;;;;;;6.43;2.25;;;;;;;;;;4936381;28;20029;-69
2023/09/15 00:25:54;;;;;;;6.13;2.13;;;;;;;;;;4945071;28;20554;-72
2023/09/15 00:28:21;;;;;;;6.15;2.40;;;;;;;;;;4941067;28;20833;-71
2023/09/15 00:30:50;;;;;;;6.57;2.03;;;;;;;;;;4938472;28;20470;-71
2023/09/15 00:33:16;;;;;;;6.13;2.00;;;;;;;;;;4945274;28;20033;-71
2023/09/15 00:35:42;;;;;;;7.00;2.05;;;;;;;;;;4941315;28;20037;-72
2023/09/15 00:38:09;;;;;;;6.05;2.00;;;;;;;;;;4947621;28;20035;-72
2023/09/15 00:40:36;;;;;;;6.82;1.95;;;;;;;;;;4946132;28;20035;-71
2023/09/15 00:43:02;;;;;;;6.10;1.88;;;;;;;;;;4943983;28;20051;-72
2023/09/15 00:45:28;;;;;;;5.05;2.00;;;;;;;;;;4940232;28;20525;-71
2023/09/15 00:47:58;;;;;;;6.53;2.17;;;;;;;;;;4941054;28;20027;-70
2023/09/15 00:50:26;;;;;;;6.45;1.90;;;;;;;;;;4940305;28;20081;-70
2023/09/15 00:52:54;;;;;;;8.63;2.20;;;;;;;;;;4943016;28;20031;-69
2023/09/15 00:55:21;;;;;;;6.28;1.90;;;;;;;;;;4940835;28;20145;-71
2023/09/15 00:57:52;;;;;;;5.32;1.90;;;;;;;;;;4941297;28;20279;-71
2023/09/15 01:00:19;;;;;;;6.00;1.77;;;;;;;;;;4941403;28;20045;-71
2023/09/15 01:02:46;;;;;;;6.13;1.80;;;;;;;;;;4941087;28;20027;-70
2023/09/15 01:05:20;;;;;;;5.30;1.80;;;;;;;;;;4944648;28;20469;-70
2023/09/15 01:07:49;;;;;;;5.65;1.80;;;;;;;;;;4943269;28;20110;-70
2023/09/15 01:10:15;;;;;;;4.93;1.60;;;;;;;;;;4943340;28;20027;-69
2023/09/15 01:12:43;;;;;;;7.40;2.20;;;;;;;;;;4938594;28;20121;-70
2023/09/15 01:15:09;;;;;;;5.80;2.05;;;;;;;;;;4943389;28;20210;-70
2023/09/15 01:17:42;;;;;;;6.18;2.03;;;;;;;;;;4946535;28;20030;-70
2023/09/15 01:20:14;;;;;;;5.60;2.00;;;;;;;;;;4943096;28;20130;-70
2023/09/15 01:22:52;;;;;;;5.10;1.77;;;;;;;;;;4941133;28;20035;-70
2023/09/15 01:25:31;;;;;;;5.68;1.75;;;;;;;;;;4946776;28;20738;-70
2023/09/15 01:28:00;;;;;;;5.10;1.75;;;;;;;;;;4942694;28;20035;-69
2023/09/15 01:30:29;;;;;;;7.80;1.73;;;;;;;;;;4941308;28;20027;-69
2023/09/15 01:32:56;;;;;;;6.63;1.60;;;;;;;;;;4938462;28;20417;-70
2023/09/15 01:35:24;;;;;;;6.95;2.30;;;;;;;;;;4937589;28;20201;-69
2023/09/15 01:37:50;;;;;;;6.38;1.98;;;;;;;;;;4948510;28;20354;-69
2023/09/15 01:40:16;;;;;;;5.95;1.70;;;;;;;;;;4946779;28;20464;-71
2023/09/15 01:42:44;;;;;;;4.32;1.60;;;;;;;;;;4943988;28;20039;-69
2023/09/15 01:45:10;;;;;;;5.95;1.90;;;;;;;;;;4946927;28;20057;-69
2023/09/15 01:47:37;;;;;;;4.50;1.48;;;;;;;;;;4944905;28;20497;-70
2023/09/15 01:50:06;;;;;;;5.55;1.80;;;;;;;;;;4952949;28;20601;-69
2023/09/15 01:52:32;;;;;;;5.53;1.80;;;;;;;;;;4942347;28;20307;-69
2023/09/15 01:54:58;;;;;;;6.53;2.08;;;;;;;;;;4944599;28;20512;-69
2023/09/15 01:57:25;;;;;;;5.90;1.70;;;;;;;;;;4945474;28;20027;-69
2023/09/15 01:59:51;;;;;;;5.25;1.50;;;;;;;;;;4950132;28;20031;-70
2023/09/15 02:02:17;;;;;;;5.90;1.85;;;;;;;;;;4951362;28;20030;-70
2023/09/15 02:04:43;;;;;;;6.00;1.77;;;;;;;;;;4949138;28;20500;-71
2023/09/15 02:07:10;;;;;;;5.38;1.80;;;;;;;;;;4953700;28;20065;-69
2023/09/15 02:09:36;;;;;;;5.13;1.70;;;;;;;;;;4940968;28;20380;-70
2023/09/15 02:12:02;;;;;;;6.45;1.60;;;;;;;;;;4948505;28;20039;-70
2023/09/15 02:14:28;;;;;;;5.68;1.80;;;;;;;;;;4940786;28;20039;-70
2023/09/15 02:16:54;;;;;;;5.10;1.52;;;;;;;;;;4941099;28;20437;-69
2023/09/15 02:19:21;;;;;;;4.78;1.70;;;;;;;;;;4950207;28;20495;-69
2023/09/15 02:21:47;;;;;;;5.63;1.50;;;;;;;;;;4948224;28;20493;-69
2023/09/15 02:24:13;;;;;;;5.20;1.70;;;;;;;;;;4949895;28;20557;-69
2023/09/15 02:26:40;;;;;;;5.38;1.50;;;;;;;;;;4945285;28;20038;-69
2023/09/15 02:29:06;;;;;;;4.18;1.40;;;;;;;;;;4945899;28;20351;-69
2023/09/15 02:31:32;;;;;;;5.43;1.25;;;;;;;;;;4945558;28;20599;-70
2023/09/15 02:33:59;;;;;;;5.07;1.40;;;;;;;;;;4952873;28;20150;-69
2023/09/15 02:36:28;;;;;;;6.13;1.60;;;;;;;;;;4948504;28;20027;-69
2023/09/15 02:38:55;;;;;;;4.70;1.55;;;;;;;;;;4951104;28;20053;-69
2023/09/15 02:41:21;;;;;;;5.25;1.50;;;;;;;;;;4944852;28;20034;-69
2023/09/15 02:43:47;;;;;;;4.25;1.50;;;;;;;;;;4950267;28;20058;-70
2023/09/15 02:46:14;;;;;;;4.68;1.48;;;;;;;;;;4952624;28;20035;-69
2023/09/15 02:48:40;;;;;;;5.57;1.60;;;;;;;;;;4949686;28;20034;-69
2023/09/15 02:51:06;;;;;;;3.90;1.30;;;;;;;;;;4949402;28;20281;-69
2023/09/15 02:53:32;;;;;;;4.88;1.60;;;;;;;;;;4941587;28;20041;-69
2023/09/15 02:56:04;;;;;;;6.10;1.65;;;;;;;;;;4952158;28;20044;-70
2023/09/15 02:58:31;;;;;;;4.63;1.50;;;;;;;;;;4943997;28;20031;-69
2023/09/15 03:00:57;;;;;;;6.50;1.90;;;;;;;;;;4951062;28;20555;-70
2023/09/15 03:03:23;;;;;;;6.05;1.60;;;;;;;;;;4944888;28;20023;-69
2023/09/15 03:05:50;;;;;;;6.20;1.80;;;;;;;;;;4951075;28;20139;-72
2023/09/15 03:08:16;;;;;;;6.47;1.90;;;;;;;;;;4942519;28;20023;-70
2023/09/15 03:10:42;;;;;;;5.47;1.55;;;;;;;;;;4943298;28;20026;-70
2023/09/15 03:13:10;;;;;;;6.40;1.55;;;;;;;;;;4950648;28;20136;-70
2023/09/15 03:15:39;;;;;;;4.65;1.50;;;;;;;;;;4944767;28;20504;-69
2023/09/15 03:18:05;;;;;;;7.57;1.80;;;;;;;;;;4944919;28;20038;-70
2023/09/15 03:20:31;;;;;;;4.47;1.42;;;;;;;;;;4948350;28;20039;-70
2023/09/15 03:22:59;;;;;;;4.55;1.55;;;;;;;;;;4951745;28;20487;-70
2023/09/15 03:25:25;;;;;;;4.65;1.40;;;;;;;;;;4947263;28;20370;-70
2023/09/15 03:27:53;;;;;;;6.05;1.85;;;;;;;;;;4944814;28;20042;-70
2023/09/15 03:30:19;;;;;;;6.00;1.67;;;;;;;;;;4946756;28;20042;-70
2023/09/15 03:32:45;;;;;;;6.05;1.63;;;;;;;;;;4942656;28;20039;-70
2023/09/15 03:35:11;;;;;;;5.15;1.80;;;;;;;;;;4943001;28;20521;-70
2023/09/15 03:37:38;;;;;;;5.13;1.65;;;;;;;;;;4939112;28;20028;-70
2023/09/15 03:40:05;;;;;;;4.45;1.55;;;;;;;;;;4945667;28;20128;-69
2023/09/15 03:42:31;;;;;;;6.78;2.20;;;;;;;;;;4941767;28;20042;-70
2023/09/15 03:44:58;;;;;;;6.35;1.80;;;;;;;;;;4947114;28;20513;-70
2023/09/15 03:47:24;;;;;;;4.85;1.85;;;;;;;;;;4945601;28;20134;-70
2023/09/15 03:49:50;;;;;;;6.28;1.92;;;;;;;;;;4940943;28;20050;-70
2023/09/15 03:52:16;;;;;;;7.20;2.35;;;;;;;;;;4939400;28;20113;-70
2023/09/15 03:54:42;;;;;;;7.45;1.95;;;;;;;;;;4942792;28;20038;-70
2023/09/15 03:57:08;;;;;;;7.00;2.50;;;;;;;;;;4950332;28;20039;-70
2023/09/15 03:59:35;;;;;;;5.57;1.88;;;;;;;;;;4945226;28;20472;-69
2023/09/15 04:02:02;;;;;;;7.78;2.08;;;;;;;;;;4943806;28;20675;-70
2023/09/15 04:04:29;;;;;;;6.28;2.00;;;;;;;;;;4944321;28;20650;-70
2023/09/15 04:06:56;;;;;;;7.15;2.35;;;;;;;;;;4946912;28;20039;-70
2023/09/15 04:09:25;;;;;;;6.70;2.00;;;;;;;;;;4941630;28;20473;-69
2023/09/15 04:11:57;;;;;;;5.82;2.05;;;;;;;;;;4947284;28;20424;-69
2023/09/15 04:14:23;;;;;;;6.50;2.10;;;;;;;;;;4942854;28;20512;-69
2023/09/15 04:16:49;;;;;;;6.72;2.13;;;;;;;;;;4949694;28;20561;-70
2023/09/15 04:19:15;;;;;;;5.88;2.10;;;;;;;;;;4945484;28;20157;-70
2023/09/15 04:21:42;;;;;;;6.45;2.10;;;;;;;;;;4945502;28;20045;-70
2023/09/15 04:24:08;;;;;;;6.22;2.25;;;;;;;;;;4945201;28;20718;-69
2023/09/15 04:26:35;;;;;;;6.55;2.17;;;;;;;;;;4943749;28;20023;-70
2023/09/15 04:29:01;;;;;;;6.05;2.30;;;;;;;;;;4947044;28;20073;-69
2023/09/15 04:31:27;;;;;;;6.47;2.03;;;;;;;;;;4943714;28;20033;-69
2023/09/15 04:33:53;;;;;;;7.38;2.33;;;;;;;;;;4947631;28;20039;-70
2023/09/15 04:36:19;;;;;;;7.43;2.17;;;;;;;;;;4941245;28;20027;-70
2023/09/15 04:38:46;;;;;;;5.75;2.30;;;;;;;;;;4943422;28;20162;-70
2023/09/15 04:41:12;;;;;;;6.22;2.00;;;;;;;;;;4939290;28;20030;-69
2023/09/15 04:43:38;;;;;;;5.22;2.08;;;;;;;;;;4941805;28;21612;-70
2023/09/15 04:46:05;;;;;;;7.65;1.98;;;;;;;;;;4945462;28;20031;-69
2023/09/15 04:48:31;;;;;;;11.40;2.47;;;;;;;;;;4945360;28;20066;-70
2023/09/15 04:50:57;;;;;;;6.60;2.10;;;;;;;;;;4941456;28;20097;-70
2023/09/15 04:53:23;;;;;;;8.35;2.42;;;;;;;;;;4945421;28;20031;-70
2023/09/15 04:55:49;;;;;;;8.40;2.13;;;;;;;;;;4944469;28;20536;-69
2023/09/15 04:58:16;;;;;;;8.27;2.42;;;;;;;;;;4938600;28;20070;-72
2023/09/15 05:00:42;;;;;;;9.05;3.03;;;;;;;;;;4942366;28;20031;-72
2023/09/15 05:03:08;;;;;;;5.18;2.00;;;;;;;;;;4946076;28;20073;-71
2023/09/15 05:05:35;;;;;;;7.85;2.58;;;;;;;;;;4943352;28;20053;-69
2023/09/15 05:08:01;;;;;;;6.72;2.20;;;;;;;;;;4943230;28;20097;-72
2023/09/15 05:10:27;;;;;;;6.32;2.30;;;;;;;;;;4942848;28;20026;-72
2023/09/15 05:12:53;;;;;;;7.20;2.53;;;;;;;;;;4940168;28;20129;-69
2023/09/15 05:15:19;;;;;;;7.15;2.47;;;;;;;;;;4940110;28;20428;-70
2023/09/15 05:17:46;;;;;;;6.28;2.22;;;;;;;;;;4943382;28;20275;-70
2023/09/15 05:20:12;;;;;;;6.88;2.63;;;;;;;;;;4944135;28;20221;-70
2023/09/15 05:22:38;;;;;;;9.70;2.88;;;;;;;;;;4939326;28;21351;-70
2023/09/15 05:25:04;;;;;;;7.75;2.40;;;;;;;;;;4942733;28;20454;-69
2023/09/15 05:27:33;;;;;;;7.25;2.50;;;;;;;;;;4938609;28;20066;-69
2023/09/15 05:29:59;;;;;;;6.40;2.03;;;;;;;;;;4945033;28;20039;-69
2023/09/15 05:32:26;;;;;;;6.78;2.10;;;;;;;;;;4938325;28;20682;-70
2023/09/15 05:34:52;;;;;;;7.40;2.15;;;;;;;;;;4942514;28;20367;-69
2023/09/15 05:37:18;;;;;;;6.43;2.38;;;;;;;;;;4941041;28;20030;-69
2023/09/15 05:39:44;;;;;;;7.53;2.10;;;;;;;;;;4941733;28;20177;-69
2023/09/15 05:42:10;;;;;;;6.40;2.17;;;;;;;;;;4941331;28;20043;-69
2023/09/15 05:44:36;;;;;;;6.47;2.38;;;;;;;;;;4940008;28;20494;-70
2023/09/15 05:47:03;;;;;;;7.65;2.28;;;;;;;;;;4941480;28;20105;-70
2023/09/15 05:49:29;;;;;;;7.40;2.58;;;;;;;;;;4940541;28;20487;-70
2023/09/15 05:51:55;;;;;;;8.77;2.40;;;;;;;;;;4942779;28;20038;-70
2023/09/15 05:54:21;;;;;;;9.32;2.30;;;;;;;;;;4941212;28;20474;-70
2023/09/15 05:56:47;;;;;;;6.43;2.15;;;;;;;;;;4943645;28;20444;-70
2023/09/15 05:59:13;;;;;;;7.82;2.63;;;;;;;;;;4942084;28;20344;-70
2023/09/15 06:01:46;;;;;;;7.70;3.00;;;;;;;;;;4939872;28;20560;-70
2023/09/15 06:04:12;;;;;;;6.90;2.38;;;;;;;;;;4945877;28;20027;-69
2023/09/15 06:06:38;;;;;;;6.70;2.10;;;;;;;;;;4943236;28;20733;-69
2023/09/15 06:09:04;;;;;;;6.90;2.53;;;;;;;;;;4948396;28;20065;-70
2023/09/15 06:11:30;;;;;;;9.32;3.78;;;;;;;;;;4947533;28;20060;-71
2023/09/15 06:13:57;;;;;;;8.88;3.58;;;;;;;;;;4948420;28;20474;-71
2023/09/15 06:16:23;;;;;;;9.13;4.15;;;;;;;;;;4941659;28;20062;-70
2023/09/15 06:18:49;;;;;;;9.35;4.00;;;;;;;;;;4944633;28;20299;-72
2023/09/15 06:21:15;;;;;;;12.68;3.65;;;;;;;;;;4946300;28;20038;-69
2023/09/15 06:23:41;;;;;;;9.68;3.75;;;;;;;;;;4945822;28;20038;-72
2023/09/15 06:26:08;;;;;;;8.07;3.15;;;;;;;;;;4946621;28;20419;-70
2023/09/15 06:28:34;;;;;;;10.25;3.20;;;;;;;;;;4945878;28;20026;-72
2023/09/15 06:31:00;;;;;;;9.13;3.00;;;;;;;;;;4945460;28;20038;-70
2023/09/15 06:33:27;;;;;;;10.02;3.08;;;;;;;;;;4943313;28;20033;-69
2023/09/15 06:35:53;;;;;;;12.15;3.38;;;;;;;;;;4944832;28;20037;-72
2023/09/15 06:38:19;;;;;;;8.50;2.83;;;;;;;;;;4946312;28;20620;-71
2023/09/15 06:40:46;;;;;;;11.57;3.30;;;;;;;;;;4951490;28;20049;-72
2023/09/15 06:43:12;;;;;;;9.05;3.15;;;;;;;;;;4947508;28;20048;-72
2023/09/15 06:45:39;;;;;;;8.82;3.13;;;;;;;;;;4943084;28;20058;-71
2023/09/15 06:48:05;;;;;;;9.38;3.35;;;;;;;;;;4947490;28;20074;-71
2023/09/15 06:50:31;;;;;;;9.13;2.70;;;;;;;;;;4945387;28;20369;-72
2023/09/15 06:52:57;;;;;;;7.30;2.47;;;;;;;;;;4948780;28;20039;-72
2023/09/15 06:55:23;;;;;;;8.15;2.92;;;;;;;;;;4942529;28;20038;-71
2023/09/15 06:57:51;;;;;;;8.60;2.80;;;;;;;;;;4949268;28;20024;-70
2023/09/15 07:00:17;;;;;;;9.25;2.75;;;;;;;;;;4948031;28;20045;-71
2023/09/15 07:02:44;;;;;;;7.80;2.67;;;;;;;;;;4946366;28;20134;-70
2023/09/15 07:05:11;;;;;;;9.60;2.65;;;;;;;;;;4945303;28;20623;-70
2023/09/15 07:07:37;;;;;;;9.20;2.30;;;;;;;;;;4945216;28;20035;-70
2023/09/15 07:10:04;;;;;;;6.75;2.03;;;;;;;;;;4944561;28;20269;-70
2023/09/15 07:12:30;;;;;;;8.77;2.80;;;;;;;;;;4940760;28;20047;-70
2023/09/15 07:15:00;;;;;;;12.82;3.00;;;;;;;;;;4950279;28;20063;-70
2023/09/15 07:17:26;;;;;;;9.15;2.30;;;;;;;;;;4943486;28;20885;-71
2023/09/15 07:19:53;;;;;;;8.85;2.75;;;;;;;;;;4947841;28;20030;-71
2023/09/15 07:22:19;;;;;;;10.95;2.45;;;;;;;;;;4940246;28;20149;-71
2023/09/15 07:24:45;;;;;;;8.77;2.38;;;;;;;;;;4945746;28;20042;-71
2023/09/15 07:27:11;;;;;;;7.57;2.50;;;;;;;;;;4946646;28;20109;-70
2023/09/15 07:29:38;;;;;;;7.10;2.20;;;;;;;;;;4943251;28;20069;-72
2023/09/15 07:32:05;;;;;;;7.13;2.38;;;;;;;;;;4947156;28;20297;-70
2023/09/15 07:34:31;;;;;;;9.27;2.85;;;;;;;;;;4939688;28;20034;-72
2023/09/15 07:36:59;;;;;;;8.20;2.40;;;;;;;;;;4945703;28;20399;-70
2023/09/15 07:39:25;;;;;;;7.63;2.28;;;;;;;;;;4942694;28;20042;-71
2023/09/15 07:41:51;;;;;;;10.18;2.50;;;;;;;;;;4944823;28;20125;-70
2023/09/15 07:44:18;;;;;;;8.00;2.35;;;;;;;;;;4946077;28;20062;-72
2023/09/15 07:46:44;;;;;;;7.05;2.17;;;;;;;;;;4948118;28;20441;-70
2023/09/15 07:49:10;;;;;;;7.45;2.10;;;;;;;;;;4945041;28;20475;-70
2023/09/15 07:51:36;;;;;;;8.75;2.60;;;;;;;;;;4942965;28;20117;-70
2023/09/15 07:54:02;;;;;;;8.05;2.50;;;;;;;;;;4944049;28;20541;-70
2023/09/15 07:56:28;;;;;;;8.30;2.38;;;;;;;;;;4939931;28;20038;-70
2023/09/15 07:58:55;;;;;;;9.38;2.72;;;;;;;;;;4940970;28;20066;-70
2023/09/15 08:01:21;;;;;;;9.57;2.53;;;;;;;;;;4944512;28;20033;-72
2023/09/15 08:03:47;;;;;;;8.70;2.50;;;;;;;;;;4944760;28;20026;-70
2023/09/15 08:06:14;;;;;;;8.20;2.17;;;;;;;;;;4944301;28;20027;-70
2023/09/15 08:08:42;;;;;;;8.45;2.50;;;;;;;;;;4938303;28;20027;-71
2023/09/15 08:11:09;;;;;;;10.70;2.85;;;;;;;;;;4942943;28;20482;-70
2023/09/15 08:13:35;;;;;;;7.22;2.60;;;;;;;;;;4940625;28;20089;-70
2023/09/15 08:16:01;;;;;;;9.70;2.92;;;;;;;;;;4946358;28;20413;-70
2023/09/15 08:18:28;;;;;;;8.60;2.80;;;;;;;;;;4938942;28;20347;-70
2023/09/15 08:20:54;;;;;;;10.02;3.10;;;;;;;;;;4944214;28;20061;-70
2023/09/15 08:23:20;;;;;;;10.32;2.90;;;;;;;;;;4943729;28;20035;-70
2023/09/15 08:25:46;;;;;;;10.10;2.55;;;;;;;;;;4946021;28;20037;-71
2023/09/15 08:28:12;;;;;;;10.18;2.95;;;;;;;;;;4939593;28;20390;-70
2023/09/15 08:30:39;;;;;;;7.70;2.50;;;;;;;;;;4942701;28;20420;-70
2023/09/15 08:33:05;;;;;;;7.68;2.55;;;;;;;;;;4945363;28;20035;-70
2023/09/15 08:35:32;;;;;;;7.80;2.70;;;;;;;;;;4942192;28;20038;-70
2023/09/15 08:37:58;;;;;;;8.45;2.55;;;;;;;;;;4941745;28;20454;-70
2023/09/15 08:40:25;;;;;;;9.38;3.08;;;;;;;;;;4939522;28;20038;-70
2023/09/15 08:42:51;;;;;;;9.02;2.90;;;;;;;;;;4946125;28;20121;-72
2023/09/15 08:45:20;;;;;;;9.35;2.70;;;;;;;;;;4945573;28;20031;-70
2023/09/15 08:47:47;;;;;;;7.65;3.08;;;;;;;;;;4939235;28;20045;-71
2023/09/15 08:50:14;;;;;;;9.00;3.05;;;;;;;;;;4944308;28;20299;-71
2023/09/15 08:52:41;;;;;;;8.88;2.85;;;;;;;;;;4941643;28;20121;-71
2023/09/15 08:55:07;;;;;;;10.85;3.22;;;;;;;;;;4945087;28;20035;-71
2023/09/15 08:57:34;;;;;;;11.95;2.70;;;;;;;;;;4942317;28;20026;-71
2023/09/15 09:00:01;;;;;;;10.15;3.17;;;;;;;;;;4943171;28;20563;-71
2023/09/15 09:02:28;;;;;;;9.60;2.80;;;;;;;;;;4942205;28;20663;-71
2023/09/15 09:04:54;;;;;;;8.85;2.83;;;;;;;;;;4946586;28;20067;-71
2023/09/15 09:07:21;;;;;;;11.05;3.22;;;;;;;;;;4942426;28;20040;-71
2023/09/15 09:09:48;;;;;;;9.50;2.75;;;;;;;;;;4944813;28;20046;-71
2023/09/15 09:12:14;;;;;;;8.55;3.15;;;;;;;;;;4943171;28;20098;-70
2023/09/15 09:14:42;;;;;;;8.90;2.85;;;;;;;;;;4937836;28;20062;-70
2023/09/15 09:17:08;;;;;;;12.48;3.63;;;;;;;;;;4942860;28;20478;-72
2023/09/15 09:19:36;;;;;;;9.60;3.20;;;;;;;;;;4944545;28;20035;-70
2023/09/15 09:22:03;;;;;;;8.00;2.90;;;;;;;;;;4944254;28;20134;-73
2023/09/15 09:24:29;;;;;;;9.52;2.88;;;;;;;;;;4942531;28;20055;-72
2023/09/15 09:26:55;;;;;;;14.57;3.50;;;;;;;;;;4945727;28;20045;-71
2023/09/15 09:29:25;;;;;;;9.32;2.95;;;;;;;;;;4944524;28;20035;-71
2023/09/15 09:31:51;;;;;;;9.10;3.10;;;;;;;;;;4944064;28;20045;-71
2023/09/15 09:34:19;;;;;;;8.85;2.88;;;;;;;;;;4943942;28;20039;-70
2023/09/15 09:36:49;;;;;;;9.23;3.58;;;;;;;;;;4944888;28;20506;-71
2023/09/15 09:39:15;;;;;;;6.65;2.70;;;;;;;;;;4931819;28;20127;-71
2023/09/15 09:41:42;;;;;;;17.48;4.10;;;;;;;;;;4945345;28;20252;-71
2023/09/15 09:44:08;;;;;;;8.48;3.15;;;;;;;;;;4946671;28;20402;-71
2023/09/15 09:46:36;;;;;;;8.18;3.00;;;;;;;;;;4948534;28;20065;-71
2023/09/15 09:49:03;;;;;;;9.10;3.00;;;;;;;;;;4949472;28;20425;-71
2023/09/15 09:51:29;;;;;;;7.55;3.10;;;;;;;;;;4943774;28;20101;-73
2023/09/15 09:53:56;;;;;;;12.05;2.83;;;;;;;;;;4946382;28;20041;-73
2023/09/15 09:56:24;;;;;;;12.57;3.63;;;;;;;;;;4939712;28;20450;-71
2023/09/15 09:58:51;;;;;;;12.05;3.80;;;;;;;;;;4950193;28;20548;-72
2023/09/15 10:01:17;;;;;;;13.82;3.55;;;;;;;;;;4945741;28;20038;-72
2023/09/15 10:03:43;;;;;;;21.10;4.72;;;;;;;;;;4945325;28;20035;-72
2023/09/15 10:06:09;;;;;;;13.82;4.43;;;;;;;;;;4946785;28;20042;-72
2023/09/15 10:08:39;;;;;;;13.85;3.90;;;;;;;;;;4942739;28;20530;-73
2023/09/15 10:11:06;;;;;;;11.38;3.83;;;;;;;;;;4949323;28;20035;-72
2023/09/15 10:13:33;;;;;;;13.45;4.00;;;;;;;;;;4944792;28;20035;-72
2023/09/15 10:15:59;;;;;;;13.73;4.40;;;;;;;;;;4944338;28;20043;-72
2023/09/15 10:18:26;;;;;;;13.20;3.72;;;;;;;;;;4941271;28;20035;-71
2023/09/15 10:20:56;;;;;;;12.13;4.05;;;;;;;;;;4947759;28;20142;-72
2023/09/15 10:23:24;;;;;;;16.15;4.55;;;;;;;;;;4942182;28;20536;-72
2023/09/15 10:25:52;;;;;;;11.00;3.60;;;;;;;;;;4946469;28;20033;-72
2023/09/15 10:28:19;;;;;;;9.43;3.53;;;;;;;;;;4951531;28;20030;-72
2023/09/15 10:30:45;;;;;;;11.80;4.10;;;;;;;;;;4949130;28;20035;-72
2023/09/15 10:33:12;;;;;;;12.27;4.47;;;;;;;;;;4947135;28;20030;-72
2023/09/15 10:35:44;;;;;;;15.75;4.65;;;;;;;;;;4945263;28;20424;-72
2023/09/15 10:38:10;;;;;;;14.35;4.28;;;;;;;;;;4944963;28;20423;-72
2023/09/15 10:40:46;;;;;;;12.55;3.90;;;;;;;;;;4943411;28;20050;-72
2023/09/15 10:43:12;;;;;;;;;;;;;;;;;;4947614;28;20134;-72
2023/09/15 10:45:38;;;;;;;12.88;4.57;;;;;;;;;;4943212;28;20533;-71
2023/09/15 10:48:05;;;;;;;10.38;3.90;;;;;;;;;;4941573;28;20027;-71
2023/09/15 10:50:31;;;;;;;12.88;4.15;;;;;;;;;;4944516;28;20037;-71
2023/09/15 10:53:06;;;;;;;13.27;4.53;;;;;;;;;;4942851;28;20426;-71
2023/09/15 10:55:32;;;;;;;12.82;4.75;;;;;;;;;;4941704;28;20614;-71
2023/09/15 10:57:58;;;;;;;13.80;4.65;;;;;;;;;;4946970;28;20050;-71
2023/09/15 11:00:25;;;;;;;12.15;4.20;;;;;;;;;;4941423;28;20516;-71
2023/09/15 11:02:51;;;;;;;13.27;4.40;;;;;;;;;;4943672;28;20058;-71
2023/09/15 11:05:19;;;;;;;14.07;4.75;;;;;;;;;;4944965;28;20176;-71
2023/09/15 11:07:45;;;;;;;16.08;4.53;;;;;;;;;;4942060;28;20101;-71
2023/09/15 11:10:11;;;;;;;14.27;4.60;;;;;;;;;;4943095;28;20090;-71
2023/09/15 11:12:37;;;;;;;12.10;4.30;;;;;;;;;;4941498;28;20106;-71
2023/09/15 11:15:04;;;;;;;14.07;4.20;;;;;;;;;;4943247;28;20118;-72
2023/09/15 11:17:31;;;;;;;14.50;4.55;;;;;;;;;;4939649;28;20043;-72
2023/09/15 11:19:59;;;;;;;14.35;3.83;;;;;;;;;;4941443;28;20121;-71
2023/09/15 11:22:26;;;;;;;13.88;4.15;;;;;;;;;;4942108;28;20484;-71
2023/09/15 11:24:52;;;;;;;10.23;3.60;;;;;;;;;;4944532;28;20034;-71
2023/09/15 11:27:19;;;;;;;10.93;3.85;;;;;;;;;;4942294;28;20027;-70
2023/09/15 11:29:45;;;;;;;15.60;4.65;;;;;;;;;;4943100;28;20532;-70
2023/09/15 11:32:11;;;;;;;11.45;3.88;;;;;;;;;;4946827;28;20150;-72
2023/09/15 11:34:37;;;;;;;14.05;4.30;;;;;;;;;;4939112;28;20035;-71
2023/09/15 11:37:03;;;;;;;12.35;4.22;;;;;;;;;;4942197;28;20027;-71
2023/09/15 11:39:29;;;;;;;12.68;4.40;;;;;;;;;;4941527;28;20077;-71
2023/09/15 11:41:56;;;;;;;13.98;3.88;;;;;;;;;;4942222;28;20033;-71
2023/09/15 11:44:29;;;;;;;13.80;3.72;;;;;;;;;;4943128;28;20047;-71
2023/09/15 11:46:56;;;;;;;12.43;4.13;;;;;;;;;;4940526;28;20035;-71
2023/09/15 11:49:23;;;;;;;14.30;4.07;;;;;;;;;;4946480;28;20038;-71
2023/09/15 11:51:50;;;;;;;11.63;3.70;;;;;;;;;;4940528;28;20023;-71
2023/09/15 11:54:16;;;;;;;11.80;3.70;;;;;;;;;;4942919;28;20063;-71
2023/09/15 11:56:45;;;;;;;13.80;4.28;;;;;;;;;;4940524;28;20027;-72
2023/09/15 11:59:13;;;;;;;11.73;3.80;;;;;;;;;;4939864;28;20042;-71
2023/09/15 12:01:40;;;;;;;12.50;3.75;;;;;;;;;;4937363;28;20039;-73
2023/09/15 12:04:06;;;;;;;11.25;3.65;;;;;;;;;;4936711;28;20549;-72
2023/09/15 12:06:33;;;;;;;14.73;3.70;;;;;;;;;;4933131;28;20041;-71
2023/09/15 12:08:59;;;;;;;15.27;3.90;;;;;;;;;;4942724;28;20065;-71
2023/09/15 12:11:25;;;;;;;13.55;3.40;;;;;;;;;;4939276;28;20506;-71
2023/09/15 12:13:56;;;;;;;11.40;3.30;;;;;;;;;;4942399;28;20039;-71
2023/09/15 12:16:31;;;;;;;14.90;3.55;;;;;;;;;;4941355;28;20026;-71
2023/09/15 12:18:58;;;;;;;12.93;3.60;;;;;;;;;;4942110;28;20367;-71
2023/09/15 12:21:26;;;;;;;12.90;3.90;;;;;;;;;;4937366;28;20061;-71
2023/09/15 12:23:56;;;;;;;11.85;4.13;;;;;;;;;;4940183;28;20477;-70
2023/09/15 12:26:25;;;;;;;13.45;3.80;;;;;;;;;;4940947;28;20043;-70
2023/09/15 12:28:54;;;;;;;13.43;4.28;;;;;;;;;;4938968;28;20600;-72
2023/09/15 12:31:21;;;;;;;13.20;5.70;;;;;;;;;;4936797;28;20054;-71
2023/09/15 12:33:49;;;;;;;12.57;3.78;;;;;;;;;;4942813;28;20123;-71
2023/09/15 12:36:15;;;;;;;12.23;3.85;;;;;;;;;;4934738;28;20034;-71
2023/09/15 12:38:42;;;;;;;12.63;3.88;;;;;;;;;;4942481;28;20070;-71
2023/09/15 12:41:08;;;;;;;11.55;3.40;;;;;;;;;;4940716;28;20169;-72
2023/09/15 12:43:35;;;;;;;12.25;3.45;;;;;;;;;;4931573;28;20050;-71
2023/09/15 12:46:03;;;;;;;10.18;3.00;;;;;;;;;;4939287;28;20181;-71
2023/09/15 12:48:29;;;;;;;13.27;3.75;;;;;;;;;;4936478;28;20027;-71
2023/09/15 12:50:56;;;;;;;12.93;3.35;;;;;;;;;;4941275;28;20031;-71
2023/09/15 12:53:22;;;;;;;12.50;3.45;;;;;;;;;;4936621;28;20578;-71
2023/09/15 12:55:48;;;;;;;12.40;3.40;;;;;;;;;;4943770;28;20082;-71
2023/09/15 12:58:14;;;;;;;17.08;4.07;;;;;;;;;;4943746;28;20149;-71
2023/09/15 13:00:40;;;;;;;11.32;3.30;;;;;;;;;;4937851;28;20031;-71
2023/09/15 13:03:06;;;;;;;12.75;3.33;;;;;;;;;;4941120;28;20047;-71
2023/09/15 13:05:33;;;;;;;15.40;3.65;;;;;;;;;;4933907;28;20481;-72
2023/09/15 13:07:59;;;;;;;14.10;3.20;;;;;;;;;;4937526;28;20577;-71
2023/09/15 13:10:26;;;;;;;19.73;4.57;;;;;;;;;;4940237;28;20026;-72
2023/09/15 13:12:52;;;;;;;19.20;6.60;;;;;;;;;;4944550;28;20027;-72
2023/09/15 13:15:21;;;;;;;17.70;4.65;;;;;;;;;;4939668;28;20046;-72
2023/09/15 13:17:50;;;;;;;10.95;3.50;;;;;;;;;;4943477;28;20045;-71
2023/09/15 13:20:16;;;;;;;11.88;3.45;;;;;;;;;;4943997;28;20572;-72
2023/09/15 13:22:43;;;;;;;14.75;3.38;;;;;;;;;;4939487;28;20035;-72
2023/09/15 13:25:09;;;;;;;11.05;3.00;;;;;;;;;;4943778;28;20026;-72
2023/09/15 13:27:36;;;;;;;10.48;3.03;;;;;;;;;;4941703;28;20038;-72
2023/09/15 13:30:04;;;;;;;10.45;2.92;;;;;;;;;;4941607;28;20520;-71
2023/09/15 13:32:30;;;;;;;11.02;2.17;;;;;;;;;;4940794;28;20046;-72
2023/09/15 13:34:56;;;;;;;9.35;2.20;;;;;;;;;;4944381;28;20030;-71
2023/09/15 13:37:23;;;;;;;9.73;2.25;;;;;;;;;;4942579;28;20058;-71
2023/09/15 13:39:49;;;;;;;7.97;2.00;;;;;;;;;;4943689;28;20133;-71
2023/09/15 13:42:30;;;;;;;9.02;1.98;;;;;;;;;;4944057;28;20039;-72
2023/09/15 13:44:56;;;;;;;7.38;1.48;;;;;;;;;;4943579;28;20127;-71
2023/09/15 13:47:22;;;;;;;6.28;1.45;;;;;;;;;;4939464;28;20850;-72
2023/09/15 13:49:48;;;;;;;7.35;1.52;;;;;;;;;;4943231;28;20019;-71
2023/09/15 13:52:14;;;;;;;7.68;1.33;;;;;;;;;;4944442;28;20036;-72
2023/09/15 13:54:40;;;;;;;7.35;1.50;;;;;;;;;;4937853;28;20515;-71
2023/09/15 13:57:07;;;;;;;7.65;1.88;;;;;;;;;;4938358;28;20031;-71
2023/09/15 13:59:33;;;;;;;7.25;2.00;;;;;;;;;;4941785;28;20031;-71
2023/09/15 14:01:59;;;;;;;8.75;2.75;;;;;;;;;;4942884;28;20035;-71
2023/09/15 14:04:25;;;;;;;8.07;1.88;;;;;;;;;;4939366;28;20462;-71
2023/09/15 14:06:52;;;;;;;8.93;1.95;;;;;;;;;;4944137;28;20393;-73
2023/09/15 14:09:18;;;;;;;7.70;1.77;;;;;;;;;;4944882;28;20130;-72
2023/09/15 14:11:45;;;;;;;8.10;1.70;;;;;;;;;;4942002;28;20027;-72
2023/09/15 14:14:12;;;;;;;8.40;1.88;;;;;;;;;;4941178;28;20136;-72
2023/09/15 14:16:39;;;;;;;9.88;1.98;;;;;;;;;;4941285;28;20038;-72
2023/09/15 14:19:05;;;;;;;7.38;2.05;;;;;;;;;;4941199;28;20031;-72
2023/09/15 14:21:34;;;;;;;8.77;2.20;;;;;;;;;;4939911;28;20109;-72
2023/09/15 14:24:00;;;;;;;6.80;1.80;;;;;;;;;;4942792;28;20100;-72
2023/09/15 14:26:26;;;;;;;8.88;2.30;;;;;;;;;;4940703;28;20051;-72
2023/09/15 14:28:53;;;;;;;11.45;2.40;;;;;;;;;;4943943;28;20035;-73
2023/09/15 14:31:20;;;;;;;11.55;2.17;;;;;;;;;;4943316;28;20035;-72
2023/09/15 14:33:46;;;;;;;10.90;2.40;;;;;;;;;;4940072;28;20516;-72
2023/09/15 14:36:12;;;;;;;6.82;2.08;;;;;;;;;;4943332;28;20031;-72